Time;durP1;ratioP1;P1;durP2;ratioP2;P2;SDS_P1;SDS_P2;PMS_P1;PMS_P2;Temp;Humidity;BMP_temperature;BMP_pressure;BME280_temperature;BME280_humidity;BME280_pressure;Samples;Min_cycle;Max_cycle;Signal;HPM_P1;HPM_P2
2021/04/24 00:04:37;;;;;;;;;16.00;14.50;;;;;;;;8800114;40;10469;-51
2021/04/24 00:10:41;;;;;;;;;18.50;17.50;;;;;;;;8801248;40;10600;-53
2021/04/24 00:16:42;;;;;;;;;13.00;13.00;;;;;;;;8800208;40;10646;-54
2021/04/24 00:22:44;;;;;;;;;19.75;17.50;;;;;;;;8801892;40;10602;-53
2021/04/24 00:28:46;;;;;;;;;18.50;17.00;;;;;;;;8801234;40;10536;-52
2021/04/24 00:34:48;;;;;;;;;18.75;17.75;;;;;;;;8799260;40;11224;-52
2021/04/24 00:40:49;;;;;;;;;18.00;15.75;;;;;;;;8801064;40;10458;-53
2021/04/24 00:46:50;;;;;;;;;22.00;17.50;;;;;;;;8800465;40;10639;-51
2021/04/24 00:52:52;;;;;;;;;17.00;13.50;;;;;;;;8800535;40;10538;-54
2021/04/24 00:58:54;;;;;;;;;17.25;17.00;;;;;;;;8799368;40;10517;-52
2021/04/24 01:04:56;;;;;;;;;19.75;17.75;;;;;;;;8800467;40;10668;-50
2021/04/24 01:10:57;;;;;;;;;19.25;18.00;;;;;;;;8799794;40;11128;-54
2021/04/24 01:16:59;;;;;;;;;17.00;16.75;;;;;;;;8800960;40;10631;-51
2021/04/24 01:23:01;;;;;;;;;16.25;15.50;;;;;;;;8799970;40;10771;-50
2021/04/24 01:29:04;;;;;;;;;21.50;17.00;;;;;;;;8800072;40;10598;-50
2021/04/24 01:35:12;;;;;;;;;14.25;13.50;;;;;;;;8799911;40;10514;-51
2021/04/24 01:41:14;;;;;;;;;16.75;15.50;;;;;;;;8800979;40;10544;-50
2021/04/24 01:47:15;;;;;;;;;17.00;13.50;;;;;;;;8800045;40;10580;-54
2021/04/24 01:53:22;;;;;;;;;13.25;13.25;;;;;;;;8799805;40;10520;-50
2021/04/24 01:59:27;;;;;;;;;16.00;13.75;;;;;;;;8798265;40;10555;-52
2021/04/24 02:05:28;;;;;;;;;15.00;15.00;;;;;;;;8776228;40;10420;-50
2021/04/24 02:11:30;;;;;;;;;19.75;18.00;;;;;;;;8775562;40;10630;-50
2021/04/24 02:17:31;;;;;;;;;17.25;14.00;;;;;;;;8775692;40;10509;-49
2021/04/24 02:23:35;;;;;;;;;11.00;11.00;;;;;;;;8775556;40;10744;-52
2021/04/24 02:29:37;;;;;;;;;17.50;17.50;;;;;;;;8774767;40;10528;-53
2021/04/24 02:35:46;;;;;;;;;15.75;13.75;;;;;;;;8774310;40;10545;-50
2021/04/24 02:41:47;;;;;;;;;18.00;18.00;;;;;;;;8774418;40;10543;-54
2021/04/24 02:47:49;;;;;;;;;17.50;16.00;;;;;;;;8775032;40;10579;-51
2021/04/24 02:53:50;;;;;;;;;20.00;18.50;;;;;;;;8774005;40;10794;-52
2021/04/24 02:59:52;;;;;;;;;17.00;16.75;;;;;;;;8774078;40;10575;-50
2021/04/24 03:05:57;;;;;;;;;21.75;17.00;;;;;;;;8773087;40;10617;-50
2021/04/24 03:11:58;;;;;;;;;17.75;16.00;;;;;;;;8776028;40;10496;-52
2021/04/24 03:18:00;;;;;;;;;18.00;15.50;;;;;;;;8775798;40;10548;-54
2021/04/24 03:24:02;;;;;;;;;20.25;16.25;;;;;;;;8777933;40;10632;-51
2021/04/24 03:30:05;;;;;;;;;15.50;14.50;;;;;;;;8776070;40;10563;-52
2021/04/24 03:36:07;;;;;;;;;20.75;19.00;;;;;;;;8776485;40;11143;-53
2021/04/24 03:42:11;;;;;;;;;23.50;17.25;;;;;;;;8776049;40;10622;-52
2021/04/24 03:48:12;;;;;;;;;20.00;17.50;;;;;;;;8775938;40;10628;-50
2021/04/24 03:54:13;;;;;;;;;22.75;20.00;;;;;;;;8776632;40;10641;-53
2021/04/24 04:00:18;;;;;;;;;20.75;19.25;;;;;;;;8779928;40;10675;-49
2021/04/24 04:06:21;;;;;;;;;20.25;16.00;;;;;;;;8775898;40;10772;-53
2021/04/24 04:12:23;;;;;;;;;20.25;20.25;;;;;;;;8775420;40;10521;-53
2021/04/24 04:18:24;;;;;;;;;14.50;13.00;;;;;;;;8775136;40;10585;-50
2021/04/24 04:24:26;;;;;;;;;29.75;22.00;;;;;;;;8794686;40;10504;-53
2021/04/24 04:30:27;;;;;;;;;26.50;21.50;;;;;;;;8798292;40;10461;-53
2021/04/24 04:36:29;;;;;;;;;24.75;23.25;;;;;;;;8797660;40;10532;-53
2021/04/24 04:42:31;;;;;;;;;21.25;21.25;;;;;;;;8796261;40;10541;-51
2021/04/24 04:48:32;;;;;;;;;18.75;16.75;;;;;;;;8799845;40;10596;-54
2021/04/24 04:54:35;;;;;;;;;20.75;18.50;;;;;;;;8797782;40;11063;-52
2021/04/24 05:00:36;;;;;;;;;17.75;17.00;;;;;;;;8799264;40;11089;-50
2021/04/24 05:06:37;;;;;;;;;17.25;14.00;;;;;;;;8789344;40;10523;-53
2021/04/24 05:12:39;;;;;;;;;18.75;18.50;;;;;;;;8796573;40;10569;-54
2021/04/24 05:18:40;;;;;;;;;17.25;15.75;;;;;;;;8798849;40;10489;-51
2021/04/24 05:24:42;;;;;;;;;16.25;16.25;;;;;;;;8797538;40;10563;-53
2021/04/24 05:30:43;;;;;;;;;23.50;23.50;;;;;;;;8798618;40;10500;-54
2021/04/24 05:36:45;;;;;;;;;25.75;23.00;;;;;;;;8799061;40;10571;-54
2021/04/24 05:42:46;;;;;;;;;21.75;21.25;;;;;;;;8799459;40;10504;-55
2021/04/24 05:48:48;;;;;;;;;19.00;17.50;;;;;;;;8798086;40;10607;-53
2021/04/24 05:54:50;;;;;;;;;17.50;15.75;;;;;;;;8798479;40;10524;-52
2021/04/24 06:00:51;;;;;;;;;19.50;17.75;;;;;;;;8798424;40;10523;-53
2021/04/24 06:06:53;;;;;;;;;21.75;18.00;;;;;;;;8798013;40;10592;-54
2021/04/24 06:12:54;;;;;;;;;21.50;19.25;;;;;;;;8795563;40;10515;-53
2021/04/24 06:18:56;;;;;;;;;19.50;18.00;;;;;;;;8798245;40;10466;-51
2021/04/24 06:24:57;;;;;;;;;19.25;16.75;;;;;;;;8798108;40;10907;-50
2021/04/24 06:30:59;;;;;;;;;20.75;20.00;;;;;;;;8798048;40;10574;-54
2021/04/24 06:37:00;;;;;;;;;18.00;16.75;;;;;;;;8797114;40;10586;-53
2021/04/24 06:43:02;;;;;;;;;14.50;14.50;;;;;;;;8795940;40;10715;-56
2021/04/24 06:49:04;;;;;;;;;20.25;17.75;;;;;;;;8777494;40;10665;-56
2021/04/24 06:55:07;;;;;;;;;15.25;15.25;;;;;;;;8777173;40;10474;-54
2021/04/24 07:01:08;;;;;;;;;13.75;13.50;;;;;;;;8775832;40;11194;-55
2021/04/24 07:07:10;;;;;;;;;21.25;19.75;;;;;;;;8777180;40;10525;-55
2021/04/24 07:13:13;;;;;;;;;21.75;20.50;;;;;;;;8775570;40;10619;-56
2021/04/24 07:19:15;;;;;;;;;18.25;17.50;;;;;;;;8777071;40;11254;-58
2021/04/24 07:25:17;;;;;;;;;18.00;17.25;;;;;;;;8775701;40;10821;-58
2021/04/24 07:31:20;;;;;;;;;18.25;18.00;;;;;;;;8776105;40;10578;-56
2021/04/24 07:37:22;;;;;;;;;20.25;19.00;;;;;;;;8775593;40;10522;-50
2021/04/24 07:43:23;;;;;;;;;22.00;20.33;;;;;;;;8776901;40;10099;-53
2021/04/24 07:49:25;;;;;;;;;21.33;18.67;;;;;;;;8785211;40;10084;-54
2021/04/24 07:55:30;;;;;;;;;19.00;17.67;;;;;;;;8776434;40;11391;-51
2021/04/24 08:01:31;;;;;;;;;21.00;17.75;;;;;;;;8775932;40;10682;-55
2021/04/24 08:07:33;;;;;;;;;20.50;18.00;;;;;;;;8774538;40;10547;-55
2021/04/24 08:13:34;;;;;;;;;18.00;16.00;;;;;;;;8774306;40;10382;-49
2021/04/24 08:19:36;;;;;;;;;21.00;19.67;;;;;;;;8797209;40;10005;-52
2021/04/24 08:25:37;;;;;;;;;13.33;11.00;;;;;;;;8800107;40;10049;-57
2021/04/24 08:31:40;;;;;;;;;18.33;17.33;;;;;;;;8799045;40;10040;-55
2021/04/24 08:37:43;;;;;;;;;18.00;16.00;;;;;;;;8799453;40;9981;-56
2021/04/24 08:43:44;;;;;;;;;12.33;12.33;;;;;;;;8798563;40;10075;-56
2021/04/24 08:49:50;;;;;;;;;14.00;14.00;;;;;;;;8800100;40;10041;-57
2021/04/24 08:55:51;;;;;;;;;14.00;14.00;;;;;;;;8798891;40;10044;-58
2021/04/24 09:01:54;;;;;;;;;14.33;14.33;;;;;;;;8798217;40;10151;-59
2021/04/24 09:08:01;;;;;;;;;19.00;17.33;;;;;;;;8784300;40;10282;-56
2021/04/24 09:14:06;;;;;;;;;11.00;11.00;;;;;;;;8792593;40;10107;-59
2021/04/24 09:20:08;;;;;;;;;14.33;13.00;;;;;;;;8774627;40;10058;-57
2021/04/24 09:26:14;;;;;;;;;16.00;14.33;;;;;;;;8789216;40;10204;-58
2021/04/24 09:32:19;;;;;;;;;20.33;19.00;;;;;;;;8796404;40;10076;-58
2021/04/24 09:38:29;;;;;;;;;23.67;22.00;;;;;;;;8772450;40;10127;-58
2021/04/24 09:44:31;;;;;;;;;22.33;21.33;;;;;;;;8792768;40;10623;-56
2021/04/24 09:50:37;;;;;;;;;23.33;22.33;;;;;;;;8794910;40;10046;-57
2021/04/24 09:56:39;;;;;;;;;27.67;26.00;;;;;;;;8790821;40;10103;-59
2021/04/24 10:02:44;;;;;;;;;23.67;23.67;;;;;;;;8774292;40;10572;-60
2021/04/24 10:08:47;;;;;;;;;21.00;21.00;;;;;;;;8774414;40;10060;-58
2021/04/24 10:14:49;;;;;;;;;21.33;20.67;;;;;;;;8779604;40;10091;-55
2021/04/24 10:20:50;;;;;;;;;26.00;24.00;;;;;;;;8800851;40;10086;-57
2021/04/24 10:26:53;;;;;;;;;22.67;22.00;;;;;;;;8782625;40;10734;-60
2021/04/24 10:32:55;;;;;;;;;19.00;19.00;;;;;;;;8777740;40;10099;-58
2021/04/24 10:38:58;;;;;;;;;22.33;18.00;;;;;;;;8790913;40;10002;-57
2021/04/24 10:45:06;;;;;;;;;17.67;17.00;;;;;;;;8781839;40;10084;-58
2021/04/24 10:51:08;;;;;;;;;21.00;16.67;;;;;;;;8777911;40;10072;-55
2021/04/24 10:57:40;;;;;;;;;30.33;27.00;;;;;;;;8776165;40;10055;-55
2021/04/24 11:03:48;;;;;;;;;17.00;17.00;;;;;;;;8777655;40;10111;-57
2021/04/24 11:10:13;;;;;;;;;19.00;16.67;;;;;;;;8776815;40;10531;-60
2021/04/24 11:16:17;;;;;;;;;14.67;14.67;;;;;;;;8775296;40;10097;-59
2021/04/24 11:22:39;;;;;;;;;15.00;15.00;;;;;;;;8776953;40;10033;-58
2021/04/24 11:28:58;;;;;;;;;19.00;17.67;;;;;;;;8763107;40;10424;-61
2021/04/24 11:35:11;;;;;;;;;39.33;33.67;;;;;;;;8776864;40;10639;-59
2021/04/24 11:41:28;;;;;;;;;16.67;16.67;;;;;;;;8776920;40;10074;-57
2021/04/24 11:47:38;;;;;;;;;15.33;15.33;;;;;;;;8776128;40;10046;-57
2021/04/24 11:53:44;;;;;;;;;18.33;17.67;;;;;;;;8776579;40;10199;-56
2021/04/24 11:59:49;;;;;;;;;33.00;27.67;;;;;;;;8776329;40;10019;-58
2021/04/24 12:05:51;;;;;;;;;12.00;12.00;;;;;;;;8776409;40;10250;-57
2021/04/24 12:12:01;;;;;;;;;14.00;14.00;;;;;;;;8776668;40;10632;-59
2021/04/24 12:18:06;;;;;;;;;18.00;15.67;;;;;;;;8776649;40;10041;-59
2021/04/24 12:24:09;;;;;;;;;14.00;14.00;;;;;;;;8775606;40;10098;-57
2021/04/24 12:30:31;;;;;;;;;21.00;19.67;;;;;;;;8774294;40;10024;-57
2021/04/24 12:36:40;;;;;;;;;18.67;16.67;;;;;;;;8775847;40;10026;-60
2021/04/24 12:42:42;;;;;;;;;19.00;16.33;;;;;;;;8775858;40;10097;-58
2021/04/24 12:48:49;;;;;;;;;17.67;15.33;;;;;;;;8774768;40;10340;-59
2021/04/24 12:55:07;;;;;;;;;15.00;15.00;;;;;;;;8775775;40;10521;-59
2021/04/24 13:01:10;;;;;;;;;14.00;12.67;;;;;;;;8776339;40;10489;-58
2021/04/24 13:07:20;;;;;;;;;13.67;13.67;;;;;;;;8774257;40;10186;-57
2021/04/24 13:13:21;;;;;;;;;11.33;11.33;;;;;;;;8779598;40;10799;-60
2021/04/24 13:19:25;;;;;;;;;18.67;17.67;;;;;;;;8799363;40;10121;-57
2021/04/24 13:25:35;;;;;;;;;15.00;14.33;;;;;;;;8799121;40;10511;-58
2021/04/24 13:31:38;;;;;;;;;16.67;15.33;;;;;;;;8798536;40;10140;-58
2021/04/24 13:37:40;;;;;;;;;16.67;14.00;;;;;;;;8799401;40;10662;-58
2021/04/24 13:43:41;;;;;;;;;15.67;15.67;;;;;;;;8800115;40;10158;-59
2021/04/24 13:49:43;;;;;;;;;13.33;13.33;;;;;;;;8797694;40;10116;-60
2021/04/24 13:55:44;;;;;;;;;14.33;13.33;;;;;;;;8796655;40;10205;-59
2021/04/24 14:01:46;;;;;;;;;16.67;16.33;;;;;;;;8798773;40;10581;-58
2021/04/24 14:07:48;;;;;;;;;13.33;12.67;;;;;;;;8798202;40;10189;-63
2021/04/24 14:13:50;;;;;;;;;14.67;14.33;;;;;;;;8799129;40;10688;-59
2021/04/24 14:19:53;;;;;;;;;19.00;19.00;;;;;;;;8798625;40;10477;-58
2021/04/24 14:25:55;;;;;;;;;13.33;13.33;;;;;;;;8798811;40;10713;-59
2021/04/24 14:31:57;;;;;;;;;14.33;12.67;;;;;;;;8798622;40;10129;-59
2021/04/24 14:37:58;;;;;;;;;19.33;19.00;;;;;;;;8797097;40;10261;-58
2021/04/24 14:44:00;;;;;;;;;17.00;12.67;;;;;;;;8797540;40;9963;-60
2021/04/24 14:50:02;;;;;;;;;14.00;11.67;;;;;;;;8796765;40;10040;-58
2021/04/24 14:56:04;;;;;;;;;16.00;14.33;;;;;;;;8798065;40;10817;-58
2021/04/24 15:02:05;;;;;;;;;15.67;13.33;;;;;;;;8796965;40;10078;-58
2021/04/24 15:08:07;;;;;;;;;15.00;12.67;;;;;;;;8798931;40;10057;-59
2021/04/24 15:14:08;;;;;;;;;11.00;11.00;;;;;;;;8800563;40;10089;-58
2021/04/24 15:20:12;;;;;;;;;17.00;14.00;;;;;;;;8800470;40;10006;-58
2021/04/24 15:26:20;;;;;;;;;15.00;15.00;;;;;;;;8799369;40;10068;-58
2021/04/24 15:32:21;;;;;;;;;13.67;13.67;;;;;;;;8801069;40;10008;-59
2021/04/24 15:38:23;;;;;;;;;14.67;14.67;;;;;;;;8800286;40;10125;-59
2021/04/24 15:44:25;;;;;;;;;17.00;16.33;;;;;;;;8800396;40;10077;-59
2021/04/24 15:50:28;;;;;;;;;14.33;13.33;;;;;;;;8800897;40;10811;-59
2021/04/24 15:56:30;;;;;;;;;14.00;13.33;;;;;;;;8799925;40;10052;-58
2021/04/24 16:02:31;;;;;;;;;9.33;7.33;;;;;;;;8800058;40;9969;-58
2021/04/24 16:08:33;;;;;;;;;19.33;17.00;;;;;;;;8800410;40;10056;-58
2021/04/24 16:14:35;;;;;;;;;15.67;14.67;;;;;;;;8801073;40;10007;-57
2021/04/24 16:20:37;;;;;;;;;16.00;16.00;;;;;;;;8799295;40;9972;-59
2021/04/24 16:26:38;;;;;;;;;18.00;18.00;;;;;;;;8799689;40;10154;-58
2021/04/24 16:32:40;;;;;;;;;21.00;21.00;;;;;;;;8799809;40;10169;-57
2021/04/24 16:38:43;;;;;;;;;18.67;17.00;;;;;;;;8800251;40;10110;-57
2021/04/24 16:44:44;;;;;;;;;23.67;22.00;;;;;;;;8799555;40;10107;-58
2021/04/24 16:50:46;;;;;;;;;24.00;23.33;;;;;;;;8798939;40;10049;-58
2021/04/24 16:56:48;;;;;;;;;32.00;27.33;;;;;;;;8798317;40;10168;-57
2021/04/24 17:02:49;;;;;;;;;27.25;26.50;;;;;;;;8800210;40;10498;-58
2021/04/24 17:08:53;;;;;;;;;35.00;30.25;;;;;;;;8798724;40;10590;-57
2021/04/24 17:14:54;;;;;;;;;31.50;30.25;;;;;;;;8800397;40;10612;-60
2021/04/24 17:20:56;;;;;;;;;32.50;28.00;;;;;;;;8798611;40;10558;-57
2021/04/24 17:26:57;;;;;;;;;32.50;31.25;;;;;;;;8798990;40;10590;-57
2021/04/24 17:32:59;;;;;;;;;40.75;37.00;;;;;;;;8799615;40;10797;-57
2021/04/24 17:39:00;;;;;;;;;44.50;39.00;;;;;;;;8798322;40;10612;-57
2021/04/24 17:45:03;;;;;;;;;37.00;32.00;;;;;;;;8799592;40;10496;-58
2021/04/24 17:51:05;;;;;;;;;37.75;33.75;;;;;;;;8797105;40;10896;-56
2021/04/24 17:57:06;;;;;;;;;40.75;35.75;;;;;;;;8798303;40;10654;-57
2021/04/24 18:03:08;;;;;;;;;40.00;35.00;;;;;;;;8798733;40;10537;-58
2021/04/24 18:09:09;;;;;;;;;41.25;36.25;;;;;;;;8797360;40;11170;-57
2021/04/24 18:15:13;;;;;;;;;41.50;38.75;;;;;;;;8798542;40;10786;-57
2021/04/24 18:21:14;;;;;;;;;47.00;40.00;;;;;;;;8798603;40;10528;-58
2021/04/24 18:27:16;;;;;;;;;38.25;35.50;;;;;;;;8798954;40;10505;-56
2021/04/24 18:33:18;;;;;;;;;44.50;38.75;;;;;;;;8798377;40;10527;-58
2021/04/24 18:39:20;;;;;;;;;56.25;45.25;;;;;;;;8798801;40;10993;-58
2021/04/24 18:45:22;;;;;;;;;54.75;45.75;;;;;;;;8800776;40;10699;-56
2021/04/24 18:51:23;;;;;;;;;58.00;46.75;;;;;;;;8801491;40;10756;-56
2021/04/24 18:57:28;;;;;;;;;55.00;45.50;;;;;;;;8801708;40;10706;-57
2021/04/24 19:03:30;;;;;;;;;56.00;47.25;;;;;;;;8803274;40;10561;-57
2021/04/24 19:09:40;;;;;;;;;50.00;44.75;;;;;;;;8799674;40;10566;-58
2021/04/24 19:15:42;;;;;;;;;56.25;46.50;;;;;;;;8800717;40;10514;-58
2021/04/24 19:21:44;;;;;;;;;54.00;46.50;;;;;;;;8801480;40;10599;-57
2021/04/24 19:27:47;;;;;;;;;52.00;44.25;;;;;;;;8801695;40;10578;-57
2021/04/24 19:33:49;;;;;;;;;49.25;42.50;;;;;;;;8799374;40;10632;-57
2021/04/24 19:39:51;;;;;;;;;41.25;37.75;;;;;;;;8800127;40;10800;-57
2021/04/24 19:45:54;;;;;;;;;39.75;35.00;;;;;;;;8777024;40;10611;-58
2021/04/24 19:51:57;;;;;;;;;33.25;33.25;;;;;;;;8775146;40;10649;-57
2021/04/24 19:57:59;;;;;;;;;40.00;32.00;;;;;;;;8776698;40;10719;-57
2021/04/24 20:04:05;;;;;;;;;37.75;35.50;;;;;;;;8775596;40;10658;-55
2021/04/24 20:10:09;;;;;;;;;32.75;28.25;;;;;;;;8776308;40;10564;-57
2021/04/24 20:16:10;;;;;;;;;33.25;31.75;;;;;;;;8775941;40;10582;-57
2021/04/24 20:22:12;;;;;;;;;22.75;20.00;;;;;;;;8774781;40;10507;-57
2021/04/24 20:28:14;;;;;;;;;30.00;26.75;;;;;;;;8776273;40;10666;-58
2021/04/24 20:34:17;;;;;;;;;34.50;28.75;;;;;;;;8775638;40;10632;-59
2021/04/24 20:40:18;;;;;;;;;33.00;32.50;;;;;;;;8775099;40;11261;-58
2021/04/24 20:46:20;;;;;;;;;36.00;34.00;;;;;;;;8774972;40;11151;-56
2021/04/24 20:52:22;;;;;;;;;33.00;29.50;;;;;;;;8775188;40;10645;-56
2021/04/24 20:58:23;;;;;;;;;34.50;33.50;;;;;;;;8775672;40;10613;-57
2021/04/24 21:04:24;;;;;;;;;29.75;28.50;;;;;;;;8774806;40;10621;-57
2021/04/24 21:10:26;;;;;;;;;30.25;26.25;;;;;;;;8774845;40;10627;-57
2021/04/24 21:16:27;;;;;;;;;24.25;24.25;;;;;;;;8775697;40;10899;-57
2021/04/24 21:22:29;;;;;;;;;30.75;28.75;;;;;;;;8774293;40;10621;-58
2021/04/24 21:28:30;;;;;;;;;27.50;24.25;;;;;;;;8775239;40;10637;-58
2021/04/24 21:34:32;;;;;;;;;28.75;27.25;;;;;;;;8775196;40;10558;-57
2021/04/24 21:40:34;;;;;;;;;30.50;25.75;;;;;;;;8775205;40;10612;-58
2021/04/24 21:46:35;;;;;;;;;30.00;25.75;;;;;;;;8774344;40;10561;-57
2021/04/24 21:52:37;;;;;;;;;33.50;29.50;;;;;;;;8774469;40;10679;-57
2021/04/24 21:58:38;;;;;;;;;27.25;25.00;;;;;;;;8774876;40;10687;-58
2021/04/24 22:04:39;;;;;;;;;28.50;28.00;;;;;;;;8773952;40;10533;-58
2021/04/24 22:10:41;;;;;;;;;32.75;28.75;;;;;;;;8773363;40;10587;-57
2021/04/24 22:16:42;;;;;;;;;28.25;26.25;;;;;;;;8773557;40;11125;-58
2021/04/24 22:22:44;;;;;;;;;30.25;29.25;;;;;;;;8773679;40;10584;-57
2021/04/24 22:28:45;;;;;;;;;31.75;31.00;;;;;;;;8774420;40;10627;-57
2021/04/24 22:34:47;;;;;;;;;33.25;30.25;;;;;;;;8774336;40;10588;-58
2021/04/24 22:40:49;;;;;;;;;34.50;30.25;;;;;;;;8772693;40;10589;-57
2021/04/24 22:46:50;;;;;;;;;32.75;31.50;;;;;;;;8773615;40;10645;-56
2021/04/24 22:52:52;;;;;;;;;28.50;28.00;;;;;;;;8773708;40;10625;-56
2021/04/24 22:58:54;;;;;;;;;21.25;18.50;;;;;;;;8773678;40;10473;-56
2021/04/24 23:04:55;;;;;;;;;26.75;24.50;;;;;;;;8774027;40;10528;-58
2021/04/24 23:10:57;;;;;;;;;29.00;26.50;;;;;;;;8772165;40;12113;-56
2021/04/24 23:16:58;;;;;;;;;26.25;23.75;;;;;;;;8773498;40;10501;-57
2021/04/24 23:23:00;;;;;;;;;21.75;19.00;;;;;;;;8772359;40;10573;-57
2021/04/24 23:29:02;;;;;;;;;28.25;25.75;;;;;;;;8774631;40;11343;-56
2021/04/24 23:35:05;;;;;;;;;28.75;25.25;;;;;;;;8775485;40;10717;-57
2021/04/24 23:41:06;;;;;;;;;25.75;23.25;;;;;;;;8776950;40;10583;-59
2021/04/24 23:47:08;;;;;;;;;20.50;17.25;;;;;;;;8786965;40;10646;-57
2021/04/24 23:53:09;;;;;;;;;26.00;23.75;;;;;;;;8799425;40;11064;-57
2021/04/24 23:59:11;;;;;;;;;22.25;20.25;;;;;;;;8800689;40;10600;-56
